sensor_id;sensor_type;location;lat;lon;timestamp;P1;durP1;ratioP1;P2;durP2;ratioP2
8268;SDS011;4174;48.304;16.364;2023-12-28T00:02:34;22.23;;;9.40;;
8268;SDS011;4174;48.304;16.364;2023-12-28T00:08:41;20.57;;;8.93;;
8268;SDS011;4174;48.304;16.364;2023-12-28T00:14:48;19.00;;;9.17;;
8268;SDS011;4174;48.304;16.364;2023-12-28T00:20:54;20.40;;;8.98;;
8268;SDS011;4174;48.304;16.364;2023-12-28T00:27:00;19.87;;;9.02;;
8268;SDS011;4174;48.304;16.364;2023-12-28T00:33:07;20.60;;;8.57;;
8268;SDS011;4174;48.304;16.364;2023-12-28T00:39:12;19.43;;;9.00;;
8268;SDS011;4174;48.304;16.364;2023-12-28T00:45:20;20.27;;;9.00;;
8268;SDS011;4174;48.304;16.364;2023-12-28T00:51:27;22.40;;;9.18;;
8268;SDS011;4174;48.304;16.364;2023-12-28T00:57:37;19.67;;;8.13;;
8268;SDS011;4174;48.304;16.364;2023-12-28T01:03:42;19.57;;;8.50;;
8268;SDS011;4174;48.304;16.364;2023-12-28T01:09:47;20.80;;;8.53;;
8268;SDS011;4174;48.304;16.364;2023-12-28T01:15:54;19.47;;;8.60;;
8268;SDS011;4174;48.304;16.364;2023-12-28T01:22:01;21.60;;;8.50;;
8268;SDS011;4174;48.304;16.364;2023-12-28T01:28:07;20.07;;;8.60;;
8268;SDS011;4174;48.304;16.364;2023-12-28T01:34:13;19.73;;;8.67;;
8268;SDS011;4174;48.304;16.364;2023-12-28T01:40:19;22.33;;;9.40;;
8268;SDS011;4174;48.304;16.364;2023-12-28T01:46:28;20.77;;;9.30;;
8268;SDS011;4174;48.304;16.364;2023-12-28T01:52:34;22.87;;;9.45;;
8268;SDS011;4174;48.304;16.364;2023-12-28T01:58:40;22.27;;;9.90;;
8268;SDS011;4174;48.304;16.364;2023-12-28T02:04:49;21.65;;;9.45;;
8268;SDS011;4174;48.304;16.364;2023-12-28T02:10:56;22.85;;;9.43;;
8268;SDS011;4174;48.304;16.364;2023-12-28T02:17:06;22.93;;;9.83;;
8268;SDS011;4174;48.304;16.364;2023-12-28T02:23:11;22.73;;;10.00;;
8268;SDS011;4174;48.304;16.364;2023-12-28T02:29:18;21.40;;;9.50;;
8268;SDS011;4174;48.304;16.364;2023-12-28T02:35:35;25.00;;;10.93;;
8268;SDS011;4174;48.304;16.364;2023-12-28T02:41:41;23.67;;;10.38;;
8268;SDS011;4174;48.304;16.364;2023-12-28T02:47:45;23.53;;;10.50;;
8268;SDS011;4174;48.304;16.364;2023-12-28T02:53:51;24.00;;;10.53;;
8268;SDS011;4174;48.304;16.364;2023-12-28T03:00:04;26.03;;;10.60;;
8268;SDS011;4174;48.304;16.364;2023-12-28T03:06:09;29.25;;;11.40;;
8268;SDS011;4174;48.304;16.364;2023-12-28T03:18:25;30.40;;;12.17;;
8268;SDS011;4174;48.304;16.364;2023-12-28T03:24:31;32.50;;;12.70;;
8268;SDS011;4174;48.304;16.364;2023-12-28T03:30:40;31.40;;;12.70;;
8268;SDS011;4174;48.304;16.364;2023-12-28T03:36:47;32.33;;;13.40;;
8268;SDS011;4174;48.304;16.364;2023-12-28T03:42:52;35.03;;;13.70;;
8268;SDS011;4174;48.304;16.364;2023-12-28T03:48:58;35.70;;;13.70;;
8268;SDS011;4174;48.304;16.364;2023-12-28T03:55:06;35.97;;;14.27;;
8268;SDS011;4174;48.304;16.364;2023-12-28T04:01:12;40.93;;;14.00;;
8268;SDS011;4174;48.304;16.364;2023-12-28T04:07:18;37.10;;;14.13;;
8268;SDS011;4174;48.304;16.364;2023-12-28T04:13:23;37.03;;;14.23;;
8268;SDS011;4174;48.304;16.364;2023-12-28T04:19:30;37.03;;;13.98;;
8268;SDS011;4174;48.304;16.364;2023-12-28T04:25:37;38.80;;;14.53;;
8268;SDS011;4174;48.304;16.364;2023-12-28T04:38:10;36.17;;;13.53;;
8268;SDS011;4174;48.304;16.364;2023-12-28T04:44:16;33.80;;;13.23;;
8268;SDS011;4174;48.304;16.364;2023-12-28T04:50:23;36.43;;;13.63;;
8268;SDS011;4174;48.304;16.364;2023-12-28T05:02:43;32.40;;;12.70;;
8268;SDS011;4174;48.304;16.364;2023-12-28T05:08:48;32.33;;;12.77;;
8268;SDS011;4174;48.304;16.364;2023-12-28T05:14:55;35.20;;;12.90;;
8268;SDS011;4174;48.304;16.364;2023-12-28T05:21:01;35.15;;;13.48;;
8268;SDS011;4174;48.304;16.364;2023-12-28T05:27:06;35.43;;;13.17;;
8268;SDS011;4174;48.304;16.364;2023-12-28T05:33:11;36.60;;;13.07;;
8268;SDS011;4174;48.304;16.364;2023-12-28T05:39:21;36.13;;;13.00;;
8268;SDS011;4174;48.304;16.364;2023-12-28T05:45:26;33.85;;;13.00;;
8268;SDS011;4174;48.304;16.364;2023-12-28T05:51:39;35.40;;;12.90;;
8268;SDS011;4174;48.304;16.364;2023-12-28T05:57:43;33.57;;;12.90;;
8268;SDS011;4174;48.304;16.364;2023-12-28T06:03:49;33.60;;;12.55;;
8268;SDS011;4174;48.304;16.364;2023-12-28T06:09:54;30.23;;;11.60;;
8268;SDS011;4174;48.304;16.364;2023-12-28T06:15:58;27.50;;;10.93;;
8268;SDS011;4174;48.304;16.364;2023-12-28T06:22:04;38.70;;;13.52;;
8268;SDS011;4174;48.304;16.364;2023-12-28T06:28:10;40.63;;;13.23;;
8268;SDS011;4174;48.304;16.364;2023-12-28T06:34:18;30.52;;;11.48;;
8268;SDS011;4174;48.304;16.364;2023-12-28T06:40:26;30.88;;;11.63;;
8268;SDS011;4174;48.304;16.364;2023-12-28T06:46:33;29.08;;;11.45;;
8268;SDS011;4174;48.304;16.364;2023-12-28T06:52:40;31.27;;;12.27;;
8268;SDS011;4174;48.304;16.364;2023-12-28T06:58:48;35.70;;;12.98;;
8268;SDS011;4174;48.304;16.364;2023-12-28T07:04:53;32.95;;;12.18;;
8268;SDS011;4174;48.304;16.364;2023-12-28T07:10:57;36.10;;;13.15;;
8268;SDS011;4174;48.304;16.364;2023-12-28T07:17:04;37.57;;;12.97;;
8268;SDS011;4174;48.304;16.364;2023-12-28T07:23:08;39.08;;;14.43;;
8268;SDS011;4174;48.304;16.364;2023-12-28T07:29:17;38.37;;;13.67;;
8268;SDS011;4174;48.304;16.364;2023-12-28T07:35:25;37.20;;;13.18;;
8268;SDS011;4174;48.304;16.364;2023-12-28T07:41:33;37.25;;;13.35;;
8268;SDS011;4174;48.304;16.364;2023-12-28T07:47:40;35.80;;;12.60;;
8268;SDS011;4174;48.304;16.364;2023-12-28T07:53:46;36.78;;;13.10;;
8268;SDS011;4174;48.304;16.364;2023-12-28T07:59:58;34.38;;;12.93;;
8268;SDS011;4174;48.304;16.364;2023-12-28T08:06:06;32.07;;;12.37;;
8268;SDS011;4174;48.304;16.364;2023-12-28T08:12:11;31.17;;;11.88;;
8268;SDS011;4174;48.304;16.364;2023-12-28T08:18:16;28.25;;;10.73;;
8268;SDS011;4174;48.304;16.364;2023-12-28T08:24:24;25.75;;;10.63;;
8268;SDS011;4174;48.304;16.364;2023-12-28T08:30:32;26.57;;;10.40;;
8268;SDS011;4174;48.304;16.364;2023-12-28T08:42:52;28.03;;;10.87;;
8268;SDS011;4174;48.304;16.364;2023-12-28T08:48:59;34.70;;;13.17;;
8268;SDS011;4174;48.304;16.364;2023-12-28T08:55:05;29.37;;;11.85;;
8268;SDS011;4174;48.304;16.364;2023-12-28T09:01:15;31.52;;;12.10;;
8268;SDS011;4174;48.304;16.364;2023-12-28T09:07:21;30.00;;;11.68;;
8268;SDS011;4174;48.304;16.364;2023-12-28T09:13:28;31.13;;;12.33;;
8268;SDS011;4174;48.304;16.364;2023-12-28T09:19:33;32.00;;;11.63;;
8268;SDS011;4174;48.304;16.364;2023-12-28T09:25:41;28.67;;;11.73;;
8268;SDS011;4174;48.304;16.364;2023-12-28T09:31:47;33.03;;;13.57;;
8268;SDS011;4174;48.304;16.364;2023-12-28T09:37:53;30.47;;;12.10;;
8268;SDS011;4174;48.304;16.364;2023-12-28T09:44:07;31.93;;;12.93;;
8268;SDS011;4174;48.304;16.364;2023-12-28T09:50:09;36.05;;;12.70;;
8268;SDS011;4174;48.304;16.364;2023-12-28T09:56:15;32.97;;;12.70;;
8268;SDS011;4174;48.304;16.364;2023-12-28T10:02:21;35.67;;;13.20;;
8268;SDS011;4174;48.304;16.364;2023-12-28T10:08:32;39.87;;;14.20;;
8268;SDS011;4174;48.304;16.364;2023-12-28T10:14:39;36.10;;;12.53;;
8268;SDS011;4174;48.304;16.364;2023-12-28T10:20:49;34.35;;;12.50;;
8268;SDS011;4174;48.304;16.364;2023-12-28T10:26:55;33.07;;;12.27;;
8268;SDS011;4174;48.304;16.364;2023-12-28T10:33:06;31.02;;;11.68;;
8268;SDS011;4174;48.304;16.364;2023-12-28T10:39:13;31.77;;;11.77;;
8268;SDS011;4174;48.304;16.364;2023-12-28T10:51:34;29.73;;;12.18;;
8268;SDS011;4174;48.304;16.364;2023-12-28T10:57:50;25.85;;;10.50;;
8268;SDS011;4174;48.304;16.364;2023-12-28T11:04:31;27.80;;;11.43;;
8268;SDS011;4174;48.304;16.364;2023-12-28T11:10:24;27.58;;;11.15;;
8268;SDS011;4174;48.304;16.364;2023-12-28T11:16:32;25.60;;;10.80;;
8268;SDS011;4174;48.304;16.364;2023-12-28T11:22:36;25.87;;;11.00;;
8268;SDS011;4174;48.304;16.364;2023-12-28T11:28:42;30.45;;;11.07;;
8268;SDS011;4174;48.304;16.364;2023-12-28T11:34:55;24.92;;;10.63;;
8268;SDS011;4174;48.304;16.364;2023-12-28T11:40:54;26.87;;;10.80;;
8268;SDS011;4174;48.304;16.364;2023-12-28T11:47:10;26.33;;;10.45;;
8268;SDS011;4174;48.304;16.364;2023-12-28T11:53:12;25.33;;;9.77;;
8268;SDS011;4174;48.304;16.364;2023-12-28T11:59:19;25.63;;;10.37;;
8268;SDS011;4174;48.304;16.364;2023-12-28T12:05:25;24.37;;;10.07;;
8268;SDS011;4174;48.304;16.364;2023-12-28T12:11:29;23.27;;;10.30;;
8268;SDS011;4174;48.304;16.364;2023-12-28T12:17:42;24.90;;;9.95;;
8268;SDS011;4174;48.304;16.364;2023-12-28T12:23:48;24.92;;;9.93;;
8268;SDS011;4174;48.304;16.364;2023-12-28T12:29:55;20.80;;;8.50;;
8268;SDS011;4174;48.304;16.364;2023-12-28T12:36:06;24.55;;;10.05;;
8268;SDS011;4174;48.304;16.364;2023-12-28T12:42:13;24.93;;;9.70;;
8268;SDS011;4174;48.304;16.364;2023-12-28T12:48:18;26.20;;;9.73;;
8268;SDS011;4174;48.304;16.364;2023-12-28T13:00:42;22.08;;;9.10;;
8268;SDS011;4174;48.304;16.364;2023-12-28T13:06:49;21.58;;;8.80;;
8268;SDS011;4174;48.304;16.364;2023-12-28T13:19:16;22.20;;;8.77;;
8268;SDS011;4174;48.304;16.364;2023-12-28T13:25:24;21.63;;;9.13;;
8268;SDS011;4174;48.304;16.364;2023-12-28T13:31:32;22.73;;;8.80;;
8268;SDS011;4174;48.304;16.364;2023-12-28T13:37:39;22.73;;;8.20;;
8268;SDS011;4174;48.304;16.364;2023-12-28T13:43:45;22.50;;;8.97;;
8268;SDS011;4174;48.304;16.364;2023-12-28T13:49:51;21.40;;;8.55;;
8268;SDS011;4174;48.304;16.364;2023-12-28T13:55:59;23.97;;;9.47;;
8268;SDS011;4174;48.304;16.364;2023-12-28T14:02:06;22.80;;;9.60;;
8268;SDS011;4174;48.304;16.364;2023-12-28T14:08:13;21.85;;;8.43;;
8268;SDS011;4174;48.304;16.364;2023-12-28T14:14:20;21.08;;;8.85;;
8268;SDS011;4174;48.304;16.364;2023-12-28T14:20:26;24.30;;;9.33;;
8268;SDS011;4174;48.304;16.364;2023-12-28T14:26:35;22.87;;;8.55;;
8268;SDS011;4174;48.304;16.364;2023-12-28T14:32:41;21.37;;;8.20;;
8268;SDS011;4174;48.304;16.364;2023-12-28T14:38:47;21.83;;;8.80;;
8268;SDS011;4174;48.304;16.364;2023-12-28T14:44:52;21.73;;;8.30;;
8268;SDS011;4174;48.304;16.364;2023-12-28T14:50:57;23.70;;;8.93;;
8268;SDS011;4174;48.304;16.364;2023-12-28T14:57:05;24.17;;;8.97;;
8268;SDS011;4174;48.304;16.364;2023-12-28T15:03:12;22.87;;;8.90;;
8268;SDS011;4174;48.304;16.364;2023-12-28T15:09:17;23.67;;;9.40;;
8268;SDS011;4174;48.304;16.364;2023-12-28T15:15:25;32.47;;;12.50;;
8268;SDS011;4174;48.304;16.364;2023-12-28T15:21:36;26.45;;;9.98;;
8268;SDS011;4174;48.304;16.364;2023-12-28T15:27:45;28.57;;;10.87;;
8268;SDS011;4174;48.304;16.364;2023-12-28T15:33:54;32.50;;;12.07;;
8268;SDS011;4174;48.304;16.364;2023-12-28T15:40:02;27.70;;;10.57;;
8268;SDS011;4174;48.304;16.364;2023-12-28T15:46:14;30.65;;;11.07;;
8268;SDS011;4174;48.304;16.364;2023-12-28T15:52:23;29.97;;;10.60;;
8268;SDS011;4174;48.304;16.364;2023-12-28T15:58:36;30.20;;;11.20;;
8268;SDS011;4174;48.304;16.364;2023-12-28T16:04:46;33.03;;;11.97;;
8268;SDS011;4174;48.304;16.364;2023-12-28T16:10:55;30.53;;;11.67;;
8268;SDS011;4174;48.304;16.364;2023-12-28T16:17:04;31.00;;;11.37;;
8268;SDS011;4174;48.304;16.364;2023-12-28T16:23:12;31.43;;;11.80;;
8268;SDS011;4174;48.304;16.364;2023-12-28T16:29:19;35.90;;;13.03;;
8268;SDS011;4174;48.304;16.364;2023-12-28T16:35:26;36.30;;;13.23;;
8268;SDS011;4174;48.304;16.364;2023-12-28T16:41:37;35.73;;;12.93;;
8268;SDS011;4174;48.304;16.364;2023-12-28T16:47:40;31.57;;;12.40;;
8268;SDS011;4174;48.304;16.364;2023-12-28T16:53:45;42.03;;;14.87;;
8268;SDS011;4174;48.304;16.364;2023-12-28T16:59:56;37.27;;;13.73;;
8268;SDS011;4174;48.304;16.364;2023-12-28T17:06:03;37.78;;;13.60;;
8268;SDS011;4174;48.304;16.364;2023-12-28T17:12:13;38.75;;;14.23;;
8268;SDS011;4174;48.304;16.364;2023-12-28T17:18:22;37.83;;;12.97;;
8268;SDS011;4174;48.304;16.364;2023-12-28T17:24:41;39.50;;;14.87;;
8268;SDS011;4174;48.304;16.364;2023-12-28T17:30:55;39.65;;;14.10;;
8268;SDS011;4174;48.304;16.364;2023-12-28T17:37:04;36.80;;;13.25;;
8268;SDS011;4174;48.304;16.364;2023-12-28T17:49:52;42.93;;;14.27;;
8268;SDS011;4174;48.304;16.364;2023-12-28T17:55:58;40.43;;;14.40;;
8268;SDS011;4174;48.304;16.364;2023-12-28T18:02:03;38.25;;;13.45;;
8268;SDS011;4174;48.304;16.364;2023-12-28T18:08:10;38.60;;;13.67;;
8268;SDS011;4174;48.304;16.364;2023-12-28T18:14:18;39.67;;;13.43;;
8268;SDS011;4174;48.304;16.364;2023-12-28T18:20:27;38.37;;;13.07;;
8268;SDS011;4174;48.304;16.364;2023-12-28T18:26:37;37.43;;;13.17;;
8268;SDS011;4174;48.304;16.364;2023-12-28T18:32:42;42.75;;;13.00;;
8268;SDS011;4174;48.304;16.364;2023-12-28T18:38:48;38.67;;;13.40;;
8268;SDS011;4174;48.304;16.364;2023-12-28T19:11:43;34.35;;;13.27;;
8268;SDS011;4174;48.304;16.364;2023-12-28T19:17:48;35.42;;;13.70;;
8268;SDS011;4174;48.304;16.364;2023-12-28T19:23:57;33.10;;;13.37;;
8268;SDS011;4174;48.304;16.364;2023-12-28T19:30:04;43.77;;;17.03;;
8268;SDS011;4174;48.304;16.364;2023-12-28T19:36:14;32.35;;;13.10;;
8268;SDS011;4174;48.304;16.364;2023-12-28T19:42:21;33.83;;;13.45;;
8268;SDS011;4174;48.304;16.364;2023-12-28T19:48:29;30.30;;;12.02;;
8268;SDS011;4174;48.304;16.364;2023-12-28T19:54:35;31.80;;;12.55;;
8268;SDS011;4174;48.304;16.364;2023-12-28T20:07:01;31.42;;;12.70;;
8268;SDS011;4174;48.304;16.364;2023-12-28T20:13:08;28.75;;;11.30;;
8268;SDS011;4174;48.304;16.364;2023-12-28T20:25:29;26.23;;;10.70;;
8268;SDS011;4174;48.304;16.364;2023-12-28T20:31:35;27.17;;;11.07;;
8268;SDS011;4174;48.304;16.364;2023-12-28T20:37:42;28.87;;;11.88;;
8268;SDS011;4174;48.304;16.364;2023-12-28T20:43:49;30.73;;;11.40;;
8268;SDS011;4174;48.304;16.364;2023-12-28T20:49:59;27.80;;;11.37;;
8268;SDS011;4174;48.304;16.364;2023-12-28T20:56:05;26.42;;;11.23;;
8268;SDS011;4174;48.304;16.364;2023-12-28T21:02:17;29.23;;;11.37;;
8268;SDS011;4174;48.304;16.364;2023-12-28T21:08:25;24.83;;;10.87;;
8268;SDS011;4174;48.304;16.364;2023-12-28T21:14:34;23.17;;;9.23;;
8268;SDS011;4174;48.304;16.364;2023-12-28T21:20:42;19.23;;;9.03;;
8268;SDS011;4174;48.304;16.364;2023-12-28T21:26:52;21.20;;;8.60;;
8268;SDS011;4174;48.304;16.364;2023-12-28T21:32:59;20.80;;;8.90;;
8268;SDS011;4174;48.304;16.364;2023-12-28T21:39:05;21.33;;;9.27;;
8268;SDS011;4174;48.304;16.364;2023-12-28T21:45:12;23.63;;;9.90;;
8268;SDS011;4174;48.304;16.364;2023-12-28T21:57:29;37.03;;;10.82;;
8268;SDS011;4174;48.304;16.364;2023-12-28T22:03:36;27.93;;;11.50;;
8268;SDS011;4174;48.304;16.364;2023-12-28T22:09:41;27.67;;;11.00;;
8268;SDS011;4174;48.304;16.364;2023-12-28T22:15:53;27.80;;;11.30;;
8268;SDS011;4174;48.304;16.364;2023-12-28T22:22:01;28.13;;;11.87;;
8268;SDS011;4174;48.304;16.364;2023-12-28T22:28:06;23.60;;;10.63;;
8268;SDS011;4174;48.304;16.364;2023-12-28T22:34:13;25.75;;;10.93;;
8268;SDS011;4174;48.304;16.364;2023-12-28T22:40:17;22.97;;;10.23;;
8268;SDS011;4174;48.304;16.364;2023-12-28T22:46:23;22.65;;;9.93;;
8268;SDS011;4174;48.304;16.364;2023-12-28T22:52:30;21.15;;;9.50;;
8268;SDS011;4174;48.304;16.364;2023-12-28T22:58:37;21.87;;;9.48;;
8268;SDS011;4174;48.304;16.364;2023-12-28T23:04:42;22.73;;;9.93;;
8268;SDS011;4174;48.304;16.364;2023-12-28T23:10:48;24.45;;;10.00;;
8268;SDS011;4174;48.304;16.364;2023-12-28T23:16:53;23.40;;;9.70;;
8268;SDS011;4174;48.304;16.364;2023-12-28T23:23:00;23.17;;;10.27;;
8268;SDS011;4174;48.304;16.364;2023-12-28T23:29:06;25.73;;;10.32;;
8268;SDS011;4174;48.304;16.364;2023-12-28T23:35:11;25.50;;;10.00;;
8268;SDS011;4174;48.304;16.364;2023-12-28T23:41:17;23.42;;;9.73;;
8268;SDS011;4174;48.304;16.364;2023-12-28T23:47:22;22.83;;;9.93;;
8268;SDS011;4174;48.304;16.364;2023-12-28T23:53:37;22.30;;;9.40;;
8268;SDS011;4174;48.304;16.364;2023-12-28T23:59:43;23.53;;;9.53;;
